Webcam Richtung Westen

Webcam27

Webcam Richtung Norden

Webcam36

Webcam Richtung Osten

Webcam09

Wetter(Würzburg):
180200Z AUTO 31003G04KT 18KM -DZ FEW025 BKN035 OVC043 04/03 Q1036
		
Tue 18.01.2022, 02:00 UTC

Sichtweite bis zu 18 km
schwacher Sprühregen
Wind aus 310° mit 03kt, in Böen bis zu 04kt
vereinzelte Wolken (1-2 Achtel) bei 2500 Fuß
unterbrochene Wolkendecke (5-7 Achtel) bei 3500 Fuß
bedeckter Himmel (8 Achtel) bei 4300 Fuß
Temperatur: 4 °C
Taupunkt: 3 °C
QNH: 1036 hPa
                         Heute        Morgen
                         18.01        19.01
--------------------------------------------
Beginn der Dämmerung     06:33        06:33
Sonnenaufgang            07:10        07:09
Sonnenuntergang          15:51        15:52
Ende der Dämmerung       16:27        16:29

Alle Zeiten in UTC